createdAt,value
2019-06-26T00:00:49.971Z,8.40
2019-06-26T00:01:50.214Z,8.40
2019-06-26T00:02:50.441Z,8.50
2019-06-26T00:03:50.670Z,8.80
2019-06-26T00:04:50.903Z,8.90
2019-06-26T00:05:51.133Z,8.90
2019-06-26T00:06:51.391Z,8.00
2019-06-26T00:07:51.600Z,8.50
2019-06-26T00:08:51.837Z,8.50
2019-06-26T00:09:52.066Z,8.20
2019-06-26T00:10:52.300Z,8.80
2019-06-26T00:11:52.532Z,8.70
2019-06-26T00:12:52.763Z,8.50
2019-06-26T00:13:52.996Z,8.90
2019-06-26T00:14:53.230Z,8.30
2019-06-26T00:15:53.461Z,8.80
2019-06-26T00:16:53.692Z,9.10
2019-06-26T00:17:53.924Z,8.70
2019-06-26T00:18:54.155Z,9.30
2019-06-26T00:19:54.391Z,9.60
2019-06-26T00:20:54.619Z,8.40
2019-06-26T00:21:54.854Z,9.30
2019-06-26T00:22:55.092Z,8.90
2019-06-26T00:23:55.314Z,9.10
2019-06-26T00:24:55.552Z,9.10
2019-06-26T00:25:55.778Z,8.80
2019-06-26T00:26:56.013Z,9.00
2019-06-26T00:27:56.238Z,9.00
2019-06-26T00:28:56.470Z,8.50
2019-06-26T00:29:56.702Z,8.50
2019-06-26T00:30:56.964Z,8.80
2019-06-26T00:31:57.192Z,9.10
2019-06-26T00:32:57.399Z,8.60
2019-06-26T00:33:57.633Z,9.10
2019-06-26T00:34:57.868Z,8.50
2019-06-26T00:35:58.096Z,9.70
2019-06-26T00:36:58.323Z,8.70
2019-06-26T00:37:58.570Z,9.30
2019-06-26T00:38:58.794Z,9.00
2019-06-26T00:39:59.026Z,8.90
2019-06-26T00:40:59.257Z,9.00
2019-06-26T00:41:59.490Z,9.30
2019-06-26T00:42:59.723Z,9.10
2019-06-26T00:43:59.953Z,9.10
2019-06-26T00:45:00.206Z,9.30
2019-06-26T00:46:00.415Z,9.10
2019-06-26T00:47:00.645Z,8.70
2019-06-26T00:48:00.879Z,9.10
2019-06-26T00:49:01.113Z,9.00
2019-06-26T00:50:01.443Z,9.10
2019-06-26T00:51:01.573Z,9.20
2019-06-26T00:52:01.811Z,8.60
2019-06-26T00:53:02.045Z,8.60
2019-06-26T00:54:02.260Z,8.40
2019-06-26T00:55:02.489Z,8.50
2019-06-26T00:56:02.719Z,8.50
2019-06-26T00:57:03.040Z,8.80
2019-06-26T00:58:03.277Z,8.70
2019-06-26T00:59:03.413Z,8.60
2019-06-26T01:00:03.683Z,9.10
2019-06-26T01:01:03.875Z,9.50
2019-06-26T01:02:04.107Z,9.20
2019-06-26T01:03:04.339Z,9.40
2019-06-26T01:04:04.570Z,8.60
2019-06-26T01:05:04.802Z,9.30
2019-06-26T01:06:05.036Z,9.20
2019-06-26T01:07:05.270Z,9.10
2019-06-26T01:08:05.499Z,9.20
2019-06-26T01:09:05.729Z,9.30
2019-06-26T01:10:05.963Z,9.20
2019-06-26T01:11:06.193Z,9.30
2019-06-26T01:12:06.422Z,8.80
2019-06-26T01:13:06.654Z,9.20
2019-06-26T01:14:06.894Z,8.90
2019-06-26T01:15:07.120Z,8.70
2019-06-26T01:16:07.350Z,9.40
2019-06-26T01:17:07.583Z,9.30
2019-06-26T01:18:07.816Z,9.30
2019-06-26T01:19:08.044Z,8.90
2019-06-26T01:20:08.276Z,9.10
2019-06-26T01:21:08.509Z,9.00
2019-06-26T01:22:08.740Z,9.00
2019-06-26T01:23:08.974Z,9.20
2019-06-26T01:24:09.204Z,9.50
2019-06-26T01:25:09.432Z,10.10
2019-06-26T01:26:09.664Z,9.90
2019-06-26T01:27:09.897Z,9.50
2019-06-26T01:28:10.132Z,9.40
2019-06-26T01:29:10.356Z,9.30
2019-06-26T01:30:10.590Z,9.30
2019-06-26T01:31:10.821Z,8.90
2019-06-26T01:32:11.054Z,8.90
2019-06-26T01:33:11.284Z,9.10
2019-06-26T01:34:11.517Z,9.50
2019-06-26T01:35:11.746Z,9.40
2019-06-26T01:36:11.975Z,9.40
2019-06-26T01:37:12.211Z,9.60
2019-06-26T01:38:12.442Z,9.60
2019-06-26T01:39:12.678Z,9.70
2019-06-26T01:40:12.903Z,9.50
2019-06-26T01:41:13.134Z,9.60
2019-06-26T01:42:13.372Z,9.90
2019-06-26T01:43:13.598Z,9.00
2019-06-26T01:44:15.471Z,8.70
2019-06-26T01:45:14.059Z,9.10
2019-06-26T01:46:14.295Z,9.50
2019-06-26T01:47:14.526Z,9.50
2019-06-26T01:48:14.754Z,9.40
2019-06-26T01:49:14.989Z,9.60
2019-06-26T01:50:15.220Z,10.30
2019-06-26T01:51:15.453Z,9.80
2019-06-26T01:52:15.717Z,10.50
2019-06-26T01:53:15.917Z,10.40
2019-06-26T01:54:16.146Z,10.20
2019-06-26T01:55:16.380Z,10.80
2019-06-26T01:56:16.611Z,10.90
2019-06-26T01:57:16.838Z,10.50
2019-06-26T01:58:17.075Z,10.30
2019-06-26T01:59:17.306Z,10.70
2019-06-26T02:00:17.535Z,10.50
2019-06-26T02:01:17.764Z,9.90
2019-06-26T02:02:17.995Z,10.30
2019-06-26T02:03:18.228Z,10.40
2019-06-26T02:04:18.459Z,10.20
2019-06-26T02:05:18.690Z,10.80
2019-06-26T02:06:18.920Z,11.00
2019-06-26T02:07:19.153Z,10.50
2019-06-26T02:08:19.382Z,10.20
2019-06-26T02:09:19.614Z,10.20
2019-06-26T02:10:19.845Z,10.10
2019-06-26T02:11:20.077Z,10.70
2019-06-26T02:12:20.315Z,10.50
2019-06-26T02:13:20.539Z,10.70
2019-06-26T02:14:30.632Z,10.30
2019-06-26T02:15:21.007Z,10.10
2019-06-26T02:16:21.237Z,11.00
2019-06-26T02:17:21.504Z,10.70
2019-06-26T02:18:21.700Z,11.70
2019-06-26T02:19:21.931Z,11.10
2019-06-26T02:20:22.158Z,11.50
2019-06-26T02:21:22.390Z,10.40
2019-06-26T02:22:22.622Z,10.30
2019-06-26T02:23:22.855Z,10.50
2019-06-26T02:24:23.088Z,10.70
2019-06-26T02:25:23.325Z,10.90
2019-06-26T02:26:23.554Z,11.50
2019-06-26T02:27:23.787Z,10.70
2019-06-26T02:28:24.021Z,11.40
2019-06-26T02:29:24.247Z,10.60
2019-06-26T02:30:24.482Z,11.10
2019-06-26T02:31:24.734Z,11.50
2019-06-26T02:32:24.945Z,10.60
2019-06-26T02:33:25.178Z,11.00
2019-06-26T02:34:25.410Z,10.60
2019-06-26T02:35:25.642Z,11.20
2019-06-26T02:36:25.870Z,11.60
2019-06-26T02:37:26.100Z,10.70
2019-06-26T02:38:26.336Z,10.70
2019-06-26T02:39:26.561Z,11.60
2019-06-26T02:40:26.800Z,11.10
2019-06-26T02:41:27.024Z,11.00
2019-06-26T02:42:27.256Z,12.00
2019-06-26T02:43:27.486Z,11.10
2019-06-26T02:44:27.719Z,11.00
2019-06-26T02:45:27.951Z,10.70
2019-06-26T02:46:28.185Z,10.50
2019-06-26T02:47:28.415Z,10.70
2019-06-26T02:48:28.668Z,11.10
2019-06-26T02:49:28.877Z,10.90
2019-06-26T02:50:29.108Z,10.60
2019-06-26T02:51:29.338Z,10.40
2019-06-26T02:52:29.567Z,10.40
2019-06-26T02:53:29.799Z,9.90
2019-06-26T02:54:30.031Z,10.20
2019-06-26T02:55:30.261Z,10.20
2019-06-26T02:56:30.497Z,10.40
2019-06-26T02:57:30.727Z,10.00
2019-06-26T02:58:30.975Z,9.90
2019-06-26T02:59:31.192Z,9.30
2019-06-26T03:00:31.422Z,9.50
2019-06-26T03:01:31.653Z,9.70
2019-06-26T03:02:31.885Z,9.50
2019-06-26T03:03:32.113Z,9.70
2019-06-26T03:04:32.353Z,9.30
2019-06-26T03:05:32.578Z,9.20
2019-06-26T03:06:32.807Z,8.70
2019-06-26T03:07:33.042Z,9.50
2019-06-26T03:08:33.272Z,9.20
2019-06-26T03:09:33.503Z,9.30
2019-06-26T03:10:33.737Z,9.50
2019-06-26T03:11:33.967Z,9.30
2019-06-26T03:12:34.201Z,9.80
2019-06-26T03:13:34.430Z,10.10
2019-06-26T03:14:34.663Z,9.50
2019-06-26T03:15:34.912Z,9.60
2019-06-26T03:16:35.144Z,9.50
2019-06-26T03:17:35.378Z,10.10
2019-06-26T03:18:35.613Z,10.30
2019-06-26T03:19:35.841Z,10.40
2019-06-26T03:20:36.073Z,10.80
2019-06-26T03:21:36.310Z,12.00
2019-06-26T03:22:36.538Z,11.00
2019-06-26T03:23:36.771Z,11.30
2019-06-26T03:24:37.002Z,11.80
2019-06-26T03:25:37.233Z,11.10
2019-06-26T03:26:37.464Z,11.70
2019-06-26T03:27:37.693Z,11.70
2019-06-26T03:28:37.926Z,11.20
2019-06-26T03:29:38.158Z,11.20
2019-06-26T03:30:38.390Z,11.10
2019-06-26T03:31:38.623Z,11.20
2019-06-26T03:32:38.898Z,11.10
2019-06-26T03:33:39.083Z,11.10
2019-06-26T03:34:39.313Z,10.50
2019-06-26T03:35:40.859Z,11.70
2019-06-26T03:36:39.778Z,11.60
2019-06-26T03:37:40.010Z,11.00
2019-06-26T03:38:40.246Z,10.40
2019-06-26T03:39:40.477Z,10.80
2019-06-26T03:40:40.743Z,11.30
2019-06-26T03:41:40.973Z,11.00
2019-06-26T03:42:41.205Z,10.00
2019-06-26T03:43:41.436Z,10.70
2019-06-26T03:44:41.671Z,10.50
2019-06-26T03:45:41.901Z,10.30
2019-06-26T03:46:42.134Z,9.90
2019-06-26T03:47:42.367Z,10.20
2019-06-26T03:48:42.598Z,9.80
2019-06-26T03:49:42.832Z,10.20
2019-06-26T03:50:43.061Z,10.30
2019-06-26T03:51:43.294Z,10.00
2019-06-26T03:52:43.532Z,9.40
2019-06-26T03:53:43.757Z,9.50
2019-06-26T03:54:43.989Z,10.20
2019-06-26T03:55:44.226Z,9.30
2019-06-26T03:56:44.456Z,9.50
2019-06-26T03:57:44.689Z,9.60
2019-06-26T03:58:44.930Z,10.10
2019-06-26T03:59:45.168Z,10.40
2019-06-26T04:00:45.400Z,10.30
2019-06-26T04:01:45.631Z,10.40
2019-06-26T04:02:45.863Z,10.40
2019-06-26T04:03:46.098Z,10.80
2019-06-26T04:04:46.344Z,10.30
2019-06-26T04:05:46.560Z,9.20
2019-06-26T04:06:46.843Z,10.60
2019-06-26T04:07:47.026Z,10.20
2019-06-26T04:08:47.258Z,10.30
2019-06-26T04:09:47.491Z,10.00
2019-06-26T04:10:47.730Z,9.70
2019-06-26T04:11:47.972Z,9.40
2019-06-26T04:12:48.196Z,8.80
2019-06-26T04:13:48.432Z,9.20
2019-06-26T04:14:48.668Z,9.10
2019-06-26T04:15:51.073Z,8.90
2019-06-26T04:16:49.132Z,8.00
2019-06-26T04:17:49.364Z,8.80
2019-06-26T04:18:49.599Z,7.70
2019-06-26T04:19:49.834Z,8.30
2019-06-26T04:20:50.067Z,8.00
2019-06-26T04:21:50.308Z,8.50
2019-06-26T04:22:50.537Z,8.90
2019-06-26T04:23:50.770Z,8.90
2019-06-26T04:24:51.005Z,8.70
2019-06-26T04:25:51.247Z,9.70
2019-06-26T04:26:51.476Z,9.00
2019-06-26T04:27:51.707Z,9.00
2019-06-26T04:28:51.956Z,9.40
2019-06-26T04:29:52.177Z,10.00
2019-06-26T04:30:52.415Z,10.40
2019-06-26T04:31:52.652Z,8.60
2019-06-26T04:32:52.887Z,8.80
2019-06-26T04:33:53.130Z,8.50
2019-06-26T04:34:54.555Z,8.30
2019-06-26T04:35:53.597Z,8.20
2019-06-26T04:36:53.978Z,8.30
2019-06-26T04:37:54.068Z,8.10
2019-06-26T04:38:54.306Z,8.50
2019-06-26T04:39:54.578Z,7.80
2019-06-26T04:40:54.782Z,8.30
2019-06-26T04:41:55.014Z,8.20
2019-06-26T04:42:55.252Z,8.50
2019-06-26T04:43:55.515Z,8.20
2019-06-26T04:44:55.735Z,7.80
2019-06-26T04:45:58.576Z,7.90
2019-06-26T04:46:56.205Z,8.20
2019-06-26T04:47:56.443Z,8.00
2019-06-26T04:48:56.678Z,8.70
2019-06-26T04:49:56.919Z,8.20
2019-06-26T04:50:57.157Z,8.00
2019-06-26T04:51:57.394Z,8.00
2019-06-26T04:52:57.634Z,7.50
2019-06-26T04:53:57.881Z,7.90
2019-06-26T04:54:58.108Z,7.40
2019-06-26T04:55:58.373Z,7.00
2019-06-26T04:56:58.593Z,7.60
2019-06-26T04:57:58.833Z,7.80
2019-06-26T04:58:59.072Z,7.90
2019-06-26T04:59:59.310Z,7.80
2019-06-26T05:00:59.564Z,7.30
2019-06-26T05:01:59.789Z,7.50
2019-06-26T05:03:00.036Z,7.80
2019-06-26T05:04:00.266Z,7.60
2019-06-26T05:05:00.506Z,7.60
2019-06-26T05:06:00.746Z,7.20
2019-06-26T05:07:00.987Z,7.70
2019-06-26T05:08:01.276Z,7.10
2019-06-26T05:09:01.459Z,7.50
2019-06-26T05:10:01.701Z,7.20
2019-06-26T05:11:01.942Z,7.20
2019-06-26T05:12:02.183Z,6.70
2019-06-26T05:13:02.417Z,6.50
2019-06-26T05:14:02.658Z,7.20
2019-06-26T05:15:02.899Z,7.40
2019-06-26T05:16:14.425Z,7.30
2019-06-26T05:17:03.437Z,6.30
2019-06-26T05:18:03.628Z,7.30
2019-06-26T05:19:03.870Z,7.50
2019-06-26T05:20:04.107Z,6.70
2019-06-26T05:21:04.348Z,7.30
2019-06-26T05:22:04.600Z,7.50
2019-06-26T05:23:04.840Z,7.10
2019-06-26T05:24:05.082Z,7.10
2019-06-26T05:25:05.327Z,7.70
2019-06-26T05:26:05.558Z,7.50
2019-06-26T05:27:05.799Z,7.40
2019-06-26T05:28:08.294Z,7.60
2019-06-26T05:29:06.280Z,7.70
2019-06-26T05:30:06.523Z,7.50
2019-06-26T05:31:06.765Z,7.30
2019-06-26T05:32:07.004Z,8.10
2019-06-26T05:33:07.244Z,8.30
2019-06-26T05:34:10.694Z,7.90
2019-06-26T05:35:07.753Z,7.80
2019-06-26T05:36:07.967Z,7.80
2019-06-26T05:37:08.211Z,7.70
2019-06-26T05:38:08.448Z,7.70
2019-06-26T05:39:08.714Z,8.50
2019-06-26T05:40:08.937Z,7.90
2019-06-26T05:41:09.173Z,8.20
2019-06-26T05:42:09.414Z,7.80
2019-06-26T05:43:09.655Z,7.80
2019-06-26T05:44:09.898Z,8.00
2019-06-26T05:45:10.139Z,7.70
2019-06-26T05:46:10.380Z,8.10
2019-06-26T05:47:10.619Z,8.30
2019-06-26T05:48:10.862Z,7.50
2019-06-26T05:49:11.104Z,8.00
2019-06-26T05:50:11.345Z,7.60
2019-06-26T05:51:11.588Z,7.80
2019-06-26T05:52:11.828Z,7.40
2019-06-26T05:53:12.069Z,7.50
2019-06-26T05:54:12.312Z,7.70
2019-06-26T05:55:12.553Z,7.30
2019-06-26T05:56:12.817Z,7.40
2019-06-26T05:57:13.041Z,7.70
2019-06-26T05:58:13.277Z,8.80
2019-06-26T05:59:13.528Z,8.70
2019-06-26T06:00:13.786Z,8.30
2019-06-26T06:01:14.005Z,7.80
2019-06-26T06:02:14.254Z,7.50
2019-06-26T06:03:14.494Z,7.80
2019-06-26T06:04:14.735Z,7.50
2019-06-26T06:05:14.992Z,7.80
2019-06-26T06:06:15.276Z,7.20
2019-06-26T06:07:15.459Z,7.30
2019-06-26T06:08:15.699Z,7.60
2019-06-26T06:09:15.940Z,7.50
2019-06-26T06:10:16.179Z,7.10
2019-06-26T06:11:16.450Z,7.00
2019-06-26T06:12:16.665Z,7.00
2019-06-26T06:13:16.908Z,7.10
2019-06-26T06:14:17.150Z,7.10
2019-06-26T06:15:17.396Z,6.90
2019-06-26T06:16:17.634Z,6.70
2019-06-26T06:17:17.889Z,6.80
2019-06-26T06:18:18.120Z,6.40
2019-06-26T06:19:18.369Z,7.20
2019-06-26T06:20:18.605Z,8.00
2019-06-26T06:21:18.845Z,7.20
2019-06-26T06:22:19.096Z,8.00
2019-06-26T06:23:19.338Z,8.10
2019-06-26T06:24:19.590Z,7.70
2019-06-26T06:25:19.822Z,7.90
2019-06-26T06:26:20.066Z,7.10
2019-06-26T06:27:20.310Z,7.60
2019-06-26T06:28:20.562Z,7.40
2019-06-26T06:29:20.797Z,8.20
2019-06-26T06:30:21.039Z,8.00
2019-06-26T06:31:21.282Z,7.50
2019-06-26T06:32:21.660Z,7.80
2019-06-26T06:33:21.770Z,8.20
2019-06-26T06:34:22.010Z,7.50
2019-06-26T06:35:22.254Z,7.70
2019-06-26T06:36:22.502Z,8.00
2019-06-26T06:37:22.741Z,7.80
2019-06-26T06:38:22.985Z,7.70
2019-06-26T06:39:23.229Z,8.10
2019-06-26T06:40:23.472Z,8.40
2019-06-26T06:41:23.712Z,7.80
2019-06-26T06:42:23.959Z,7.90
2019-06-26T06:43:24.198Z,8.20
2019-06-26T06:44:24.437Z,7.80
2019-06-26T06:45:24.678Z,7.80
2019-06-26T06:46:24.920Z,8.20
2019-06-26T06:47:25.166Z,11.80
2019-06-26T06:48:25.419Z,10.60
2019-06-26T06:49:25.658Z,8.90
2019-06-26T06:50:25.891Z,8.80
2019-06-26T06:51:26.136Z,8.00
2019-06-26T06:52:26.376Z,8.10
2019-06-26T06:53:26.617Z,7.90
2019-06-26T06:54:26.859Z,8.00
2019-06-26T06:55:27.101Z,8.20
2019-06-26T06:56:27.348Z,8.00
2019-06-26T06:57:27.610Z,7.90
2019-06-26T06:58:30.148Z,7.20
2019-06-26T06:59:28.078Z,7.60
2019-06-26T07:00:28.312Z,7.30
2019-06-26T07:01:28.581Z,7.30
2019-06-26T07:02:28.860Z,7.20
2019-06-26T07:03:29.044Z,7.30
2019-06-26T07:04:29.538Z,7.00
2019-06-26T07:05:29.523Z,7.60
2019-06-26T07:06:29.765Z,7.20
2019-06-26T07:07:30.012Z,7.30
2019-06-26T07:08:30.256Z,7.20
2019-06-26T07:09:30.500Z,7.40
2019-06-26T07:10:30.740Z,7.10
2019-06-26T07:11:30.985Z,7.50
2019-06-26T07:12:31.237Z,7.10
2019-06-26T07:13:31.463Z,7.40
2019-06-26T07:14:31.709Z,7.10
2019-06-26T07:15:31.951Z,7.50
2019-06-26T07:16:32.190Z,8.20
2019-06-26T07:17:32.432Z,7.90
2019-06-26T07:18:32.673Z,8.10
2019-06-26T07:19:32.915Z,8.10
2019-06-26T07:20:33.155Z,8.40
2019-06-26T07:21:33.403Z,8.20
2019-06-26T07:22:33.640Z,8.10
2019-06-26T07:23:33.881Z,8.20
2019-06-26T07:24:34.124Z,8.60
2019-06-26T07:25:34.365Z,8.40
2019-06-26T07:26:34.604Z,8.10
2019-06-26T07:27:34.841Z,8.40
2019-06-26T07:28:35.078Z,8.40
2019-06-26T07:29:35.320Z,8.30
2019-06-26T07:30:35.557Z,9.00
2019-06-26T07:31:38.462Z,9.10
2019-06-26T07:32:36.039Z,8.10
2019-06-26T07:33:36.285Z,8.30
2019-06-26T07:34:36.517Z,8.30
2019-06-26T07:35:36.758Z,8.30
2019-06-26T07:36:37.005Z,8.60
2019-06-26T07:37:37.247Z,8.50
2019-06-26T07:38:37.485Z,8.30
2019-06-26T07:39:37.718Z,8.40
2019-06-26T07:40:37.961Z,8.80
2019-06-26T07:41:38.198Z,8.60
2019-06-26T07:42:38.438Z,8.50
2019-06-26T07:43:38.680Z,8.20
2019-06-26T07:44:38.971Z,7.80
2019-06-26T07:45:39.160Z,8.10
2019-06-26T07:46:39.410Z,8.80
2019-06-26T07:47:43.474Z,8.80
2019-06-26T07:48:39.878Z,8.80
2019-06-26T07:49:40.117Z,8.70
2019-06-26T07:50:40.369Z,8.30
2019-06-26T07:51:40.691Z,8.30
2019-06-26T07:52:40.830Z,8.00
2019-06-26T07:53:41.069Z,7.90
2019-06-26T07:54:41.322Z,8.00
2019-06-26T07:55:41.549Z,8.60
2019-06-26T07:56:41.788Z,8.40
2019-06-26T07:57:42.096Z,8.50
2019-06-26T07:58:42.269Z,8.50
2019-06-26T07:59:42.513Z,8.00
2019-06-26T08:00:42.751Z,8.70
2019-06-26T08:01:42.987Z,8.20
2019-06-26T08:02:43.228Z,8.70
2019-06-26T08:03:43.465Z,8.30
2019-06-26T08:04:43.699Z,8.30
2019-06-26T08:05:43.945Z,8.60
2019-06-26T08:06:44.186Z,8.40
2019-06-26T08:07:44.422Z,8.20
2019-06-26T08:08:44.685Z,8.30
2019-06-26T08:09:44.905Z,8.70
2019-06-26T08:10:45.155Z,8.10
2019-06-26T08:11:45.381Z,8.50
2019-06-26T08:12:45.639Z,8.60
2019-06-26T08:13:45.857Z,8.40
2019-06-26T08:14:46.095Z,8.50
2019-06-26T08:15:46.331Z,8.20
2019-06-26T08:16:46.578Z,9.30
2019-06-26T08:17:59.799Z,8.10
2019-06-26T08:18:47.051Z,8.30
2019-06-26T08:19:47.286Z,8.80
2019-06-26T08:21:00.744Z,8.50
2019-06-26T08:21:47.761Z,8.00
2019-06-26T08:22:48.000Z,8.60
2019-06-26T08:23:48.236Z,9.40
2019-06-26T08:24:48.475Z,8.70
2019-06-26T08:25:48.713Z,8.40
2019-06-26T08:26:48.954Z,8.80
2019-06-26T08:27:49.188Z,8.40
2019-06-26T08:28:49.426Z,8.60
2019-06-26T08:29:49.668Z,8.30
2019-06-26T08:30:49.915Z,8.40
2019-06-26T08:31:50.149Z,8.70
2019-06-26T08:32:50.429Z,8.20
2019-06-26T08:33:50.638Z,8.90
2019-06-26T08:34:50.868Z,8.80
2019-06-26T08:35:51.107Z,9.70
2019-06-26T08:36:51.344Z,8.70
2019-06-26T08:38:05.690Z,8.40
2019-06-26T08:38:51.823Z,8.40
2019-06-26T08:39:52.064Z,8.40
2019-06-26T08:40:52.306Z,8.70
2019-06-26T08:41:52.553Z,9.30
2019-06-26T08:42:52.784Z,8.50
2019-06-26T08:43:53.025Z,8.80
2019-06-26T08:44:53.260Z,9.00
2019-06-26T08:45:53.501Z,8.40
2019-06-26T08:46:53.740Z,8.70
2019-06-26T08:47:54.020Z,9.20
2019-06-26T08:48:54.234Z,8.70
2019-06-26T08:49:54.457Z,8.20
2019-06-26T08:50:54.696Z,9.00
2019-06-26T08:51:54.936Z,9.60
2019-06-26T08:52:55.175Z,8.60
2019-06-26T08:53:55.417Z,8.80
2019-06-26T08:54:55.691Z,8.90
2019-06-26T08:55:55.935Z,8.90
2019-06-26T08:56:56.170Z,9.10
2019-06-26T08:57:56.406Z,8.40
2019-06-26T08:58:56.644Z,8.90
2019-06-26T08:59:56.889Z,8.50
2019-06-26T09:00:57.129Z,9.40
2019-06-26T09:01:57.377Z,8.20
2019-06-26T09:02:57.605Z,8.70
2019-06-26T09:03:57.844Z,8.10
2019-06-26T09:04:58.086Z,9.20
2019-06-26T09:05:58.325Z,8.70
2019-06-26T09:06:58.563Z,8.70
2019-06-26T09:07:58.810Z,8.50
2019-06-26T09:08:59.040Z,8.30
2019-06-26T09:09:59.279Z,8.30
2019-06-26T09:10:59.519Z,8.40
2019-06-26T09:11:59.766Z,8.60
2019-06-26T09:13:00.003Z,8.50
2019-06-26T09:14:00.250Z,8.20
2019-06-26T09:15:00.479Z,8.20
2019-06-26T09:16:00.720Z,8.10
2019-06-26T09:17:00.956Z,7.90
2019-06-26T09:18:01.196Z,7.80
2019-06-26T09:19:01.434Z,7.70
2019-06-26T09:20:01.743Z,8.50
2019-06-26T09:21:01.931Z,8.70
2019-06-26T09:22:02.154Z,8.20
2019-06-26T09:23:02.411Z,8.30
2019-06-26T09:24:02.639Z,8.60
2019-06-26T09:25:19.834Z,8.70
2019-06-26T09:26:03.122Z,8.40
2019-06-26T09:27:03.352Z,8.60
2019-06-26T09:28:03.594Z,8.70
2019-06-26T09:29:03.831Z,8.50
2019-06-26T09:30:04.069Z,8.40
2019-06-26T09:31:04.311Z,8.00
2019-06-26T09:32:04.551Z,8.10
2019-06-26T09:33:04.791Z,8.10
2019-06-26T09:34:05.027Z,8.00
2019-06-26T09:35:05.267Z,7.90
2019-06-26T09:36:06.951Z,7.70
2019-06-26T09:37:05.757Z,7.70
2019-06-26T09:38:05.984Z,7.40
2019-06-26T09:39:06.223Z,7.70
2019-06-26T09:40:06.624Z,7.60
2019-06-26T09:41:06.700Z,7.70
2019-06-26T09:42:06.942Z,7.00
2019-06-26T09:43:07.184Z,7.60
2019-06-26T09:44:07.423Z,7.50
2019-06-26T09:45:07.664Z,8.00
2019-06-26T09:46:07.903Z,7.50
2019-06-26T09:47:08.143Z,8.30
2019-06-26T09:48:08.390Z,8.20
2019-06-26T09:49:08.621Z,7.70
2019-06-26T09:50:08.866Z,8.50
2019-06-26T09:51:09.136Z,8.10
2019-06-26T09:52:09.341Z,8.00
2019-06-26T09:53:09.587Z,8.10
2019-06-26T09:54:09.833Z,8.20
2019-06-26T09:55:10.084Z,7.60
2019-06-26T09:56:10.307Z,7.70
2019-06-26T09:57:10.543Z,8.10
2019-06-26T09:58:13.148Z,8.40
2019-06-26T09:59:11.024Z,7.90
2019-06-26T10:00:11.264Z,7.60
2019-06-26T10:01:11.504Z,7.70
2019-06-26T10:02:11.739Z,7.40
2019-06-26T10:03:11.981Z,7.70
2019-06-26T10:04:12.222Z,7.20
2019-06-26T10:05:12.462Z,7.00
2019-06-26T10:06:12.702Z,7.30
2019-06-26T10:07:12.953Z,7.70
2019-06-26T10:08:13.182Z,7.70
2019-06-26T10:09:13.424Z,7.70
2019-06-26T10:10:13.685Z,7.30
2019-06-26T10:11:13.902Z,7.70
2019-06-26T10:12:14.145Z,6.10
2019-06-26T10:13:14.390Z,5.70
2019-06-26T10:14:14.625Z,5.40
2019-06-26T10:15:14.865Z,5.00
2019-06-26T10:16:15.104Z,5.60
2019-06-26T10:17:15.348Z,5.20
2019-06-26T10:18:15.580Z,4.90
2019-06-26T10:19:15.838Z,5.10
2019-06-26T10:20:16.061Z,5.00
2019-06-26T10:21:16.303Z,4.80
2019-06-26T10:22:16.541Z,5.20
2019-06-26T10:23:16.773Z,5.30
2019-06-26T10:24:17.011Z,5.50
2019-06-26T10:25:17.254Z,5.40
2019-06-26T10:26:17.493Z,6.10
2019-06-26T10:27:17.734Z,5.90
2019-06-26T10:28:17.977Z,5.20
2019-06-26T10:29:18.216Z,5.10
2019-06-26T10:30:18.486Z,5.30
2019-06-26T10:31:18.710Z,4.80
2019-06-26T10:32:18.937Z,5.00
2019-06-26T10:33:19.178Z,4.90
2019-06-26T10:34:19.471Z,5.20
2019-06-26T10:35:19.658Z,5.10
2019-06-26T10:36:19.899Z,5.10
2019-06-26T10:37:20.139Z,5.30
2019-06-26T10:38:20.415Z,5.50
2019-06-26T10:39:20.618Z,5.70
2019-06-26T10:40:20.855Z,5.00
2019-06-26T10:41:21.096Z,5.00
2019-06-26T10:42:21.337Z,5.20
2019-06-26T10:43:21.578Z,4.90
2019-06-26T10:44:21.819Z,5.00
2019-06-26T10:45:22.058Z,5.20
2019-06-26T10:46:22.323Z,5.30
2019-06-26T10:47:22.538Z,5.40
2019-06-26T10:48:22.777Z,5.10
2019-06-26T10:49:27.570Z,5.50
2019-06-26T10:50:23.306Z,5.50
2019-06-26T10:51:23.497Z,5.20
2019-06-26T10:52:23.735Z,5.50
2019-06-26T10:53:23.976Z,5.30
2019-06-26T10:54:24.220Z,5.40
2019-06-26T10:55:24.459Z,4.90
2019-06-26T10:56:28.297Z,5.40
2019-06-26T10:57:24.936Z,5.20
2019-06-26T10:58:25.185Z,5.10
2019-06-26T10:59:25.418Z,4.90
2019-06-26T11:00:25.663Z,5.20
2019-06-26T11:01:25.898Z,5.10
2019-06-26T11:02:26.148Z,5.10
2019-06-26T11:03:26.379Z,5.10
2019-06-26T11:04:26.620Z,6.00
2019-06-26T11:05:26.856Z,4.90
2019-06-26T11:06:27.106Z,4.60
2019-06-26T11:07:27.338Z,4.80
2019-06-26T11:08:27.577Z,4.90
2019-06-26T11:09:27.817Z,5.00
2019-06-26T11:10:28.058Z,4.80
2019-06-26T11:11:28.298Z,5.10
2019-06-26T11:12:28.537Z,4.80
2019-06-26T11:13:28.778Z,5.30
2019-06-26T11:14:29.018Z,4.90
2019-06-26T11:15:29.257Z,5.10
2019-06-26T11:16:29.505Z,5.10
2019-06-26T11:17:29.740Z,4.80
2019-06-26T11:18:29.976Z,5.10
2019-06-26T11:19:43.471Z,5.40
2019-06-26T11:20:30.460Z,5.00
2019-06-26T11:21:30.701Z,5.50
2019-06-26T11:22:30.938Z,4.80
2019-06-26T11:23:31.179Z,5.10
2019-06-26T11:24:31.421Z,5.00
2019-06-26T11:25:31.661Z,4.90
2019-06-26T11:26:31.901Z,5.20
2019-06-26T11:27:32.140Z,5.20
2019-06-26T11:28:32.381Z,5.50
2019-06-26T11:29:32.619Z,6.60
2019-06-26T11:30:32.859Z,6.00
2019-06-26T11:31:33.098Z,5.50
2019-06-26T11:32:33.336Z,5.00
2019-06-26T11:33:33.573Z,5.00
2019-06-26T11:34:33.803Z,5.10
2019-06-26T11:35:34.041Z,5.00
2019-06-26T11:36:34.279Z,5.30
2019-06-26T11:37:34.517Z,5.70
2019-06-26T11:38:34.760Z,5.00
2019-06-26T11:39:34.998Z,5.20
2019-06-26T11:40:35.238Z,5.40
2019-06-26T11:41:35.477Z,5.10
2019-06-26T11:42:35.716Z,5.80
2019-06-26T11:43:35.972Z,5.60
2019-06-26T11:44:36.197Z,5.40
2019-06-26T11:45:36.436Z,6.00
2019-06-26T11:46:37.097Z,5.60
2019-06-26T11:47:36.914Z,5.60
2019-06-26T11:48:37.173Z,5.10
2019-06-26T11:49:37.499Z,5.40
2019-06-26T11:50:37.634Z,5.40
2019-06-26T11:51:37.867Z,5.00
2019-06-26T11:52:38.106Z,5.60
2019-06-26T11:53:38.355Z,5.40
2019-06-26T11:54:38.595Z,5.20
2019-06-26T11:55:38.835Z,5.10
2019-06-26T11:56:39.085Z,5.20
2019-06-26T11:57:39.339Z,5.60
2019-06-26T11:58:39.554Z,5.20
2019-06-26T11:59:39.785Z,5.10
2019-06-26T12:00:41.649Z,5.50
2019-06-26T12:01:40.267Z,5.20
2019-06-26T12:02:40.511Z,5.50
2019-06-26T12:03:40.749Z,5.30
2019-06-26T12:04:40.986Z,5.90
2019-06-26T12:05:41.233Z,5.40
2019-06-26T12:06:41.468Z,5.50
2019-06-26T12:07:41.706Z,5.40
2019-06-26T12:08:41.945Z,5.20
2019-06-26T12:09:42.209Z,5.50
2019-06-26T12:10:42.420Z,5.70
2019-06-26T12:11:42.773Z,5.00
2019-06-26T12:12:42.904Z,5.70
2019-06-26T12:13:43.155Z,5.30
2019-06-26T12:14:43.380Z,6.40
2019-06-26T12:15:43.623Z,5.30
2019-06-26T12:16:43.867Z,5.40
2019-06-26T12:17:44.104Z,5.20
2019-06-26T12:18:44.343Z,5.50
2019-06-26T12:19:44.708Z,5.00
2019-06-26T12:20:44.823Z,5.60
2019-06-26T12:21:46.987Z,5.20
2019-06-26T12:22:45.346Z,5.60
2019-06-26T12:23:45.578Z,5.30
2019-06-26T12:24:45.816Z,5.50
2019-06-26T12:25:46.056Z,5.70
2019-06-26T12:26:46.299Z,6.50
2019-06-26T12:27:46.536Z,5.90
2019-06-26T12:28:46.777Z,5.70
2019-06-26T12:29:47.018Z,6.40
2019-06-26T12:30:47.280Z,5.80
2019-06-26T12:31:47.496Z,5.70
2019-06-26T12:33:02.342Z,5.80
2019-06-26T12:33:47.976Z,5.80
2019-06-26T12:34:48.235Z,6.40
2019-06-26T12:35:48.518Z,5.70
2019-06-26T12:36:48.758Z,6.10
2019-06-26T12:37:48.943Z,6.20
2019-06-26T12:38:49.232Z,5.40
2019-06-26T12:39:49.421Z,6.10
2019-06-26T12:40:49.661Z,5.90
2019-06-26T12:41:49.904Z,5.70
2019-06-26T12:42:50.146Z,5.80
2019-06-26T12:43:50.385Z,5.70
2019-06-26T12:44:50.620Z,5.60
2019-06-26T12:45:50.865Z,6.10
2019-06-26T12:46:51.101Z,5.70
2019-06-26T12:47:51.340Z,6.50
2019-06-26T12:48:51.583Z,6.20
2019-06-26T12:49:51.821Z,5.70
2019-06-26T12:50:52.063Z,6.00
2019-06-26T12:51:52.366Z,6.00
2019-06-26T12:52:52.543Z,6.30
2019-06-26T12:53:52.820Z,5.60
2019-06-26T12:54:53.026Z,6.30
2019-06-26T12:55:53.258Z,6.20
2019-06-26T12:56:53.494Z,6.70
2019-06-26T12:57:53.751Z,6.60
2019-06-26T12:58:53.978Z,6.10
2019-06-26T12:59:57.708Z,6.00
2019-06-26T13:00:54.444Z,6.10
2019-06-26T13:01:54.683Z,5.60
2019-06-26T13:02:54.923Z,6.30
2019-06-26T13:03:55.160Z,6.30
2019-06-26T13:04:55.404Z,7.00
2019-06-26T13:05:55.641Z,5.90
2019-06-26T13:06:58.866Z,5.60
2019-06-26T13:07:56.129Z,7.00
2019-06-26T13:08:56.366Z,6.40
2019-06-26T13:09:56.609Z,6.10
2019-06-26T13:10:56.858Z,6.60
2019-06-26T13:11:57.088Z,6.50
2019-06-26T13:12:57.327Z,6.30
2019-06-26T13:14:02.574Z,6.90
2019-06-26T13:14:57.805Z,6.10
2019-06-26T13:15:58.042Z,6.30
2019-06-26T13:16:58.279Z,6.30
2019-06-26T13:18:01.357Z,6.40